Flight Track Log - Related Links

Times and Time Zones

All times are in EDT time to prevent confusion due to time zone crossing. See the AAL1459 flight status page for this flight to view local times or setup timezone preferences in your user account.

Time Position Orientation Groundspeed Altitude Reporting Facility
EDT Latitude Longitude Course Direction KTS MPH feet Rate Location/Type
Tue 07:49:34 PM 41.9820 -87.9230 320° Northwest 145 167  Level FlightAware ADS-B
Tue 07:49:49 PM 41.9900 -87.9330 317° Northwest 162 186 900 2,651 Climbing FlightAware ADS-B
Tue 07:50:17 PM 42.0060 -87.9540 316° Northwest 172 198 1,900 1,684 Climbing FlightAware ADS-B
Tue 07:50:46 PM 42.0240 -87.9750 319° Northwest 200 230 2,500 1,393 Climbing FlightAware ADS-B
Tue 07:51:13 PM 42.0480 -87.9990 323° Northwest 234 269 3,200 1,745 Climbing FlightAware ADS-B
Tue 07:51:41 PM 42.0720 -88.0240 322° Northwest 257 296 4,100 1,698 Climbing FlightAware ADS-B
Tue 07:52:06 PM 42.0950 -88.0460 325° Northwest 273 314 4,700 2,464 Climbing FlightAware ADS-B
Tue 07:52:37 PM 42.1310 -88.0780 327° Northwest 274 315 6,400 2,900 Climbing FlightAware ADS-B
Tue 07:53:06 PM 42.1560 -88.1120 315° West 283 326 7,600 2,591 Climbing FlightAware ADS-B
Tue 07:53:21 PM 42.1610 -88.1380 285° West 285 328 8,300 2,714 Climbing FlightAware ADS-B
Tue 07:53:48 PM 42.1600 -88.1880 268° West 290 334 9,500 2,609 Climbing FlightAware ADS-B
Tue 07:54:30 PM 42.1570 -88.2600 267° West 295 339 11,300 2,561 Climbing FlightAware ADS-B
Tue 07:55:10 PM 42.1550 -88.3380 268° West 305 351 13,000 2,682 Climbing FlightAware ADS-B
Tue 07:55:55 PM 42.1530 -88.4250 268° West 311 358 15,100 2,458 Climbing FlightAware ADS-B
Tue 07:56:33 PM 42.1520 -88.5000 269° West 326 375 16,400 1,553 Climbing FlightAware ADS-B
Tue 07:57:20 PM 42.1500 -88.6020 269° West 369 425 17,300 1,429 Climbing FlightAware ADS-B
Tue 07:57:57 PM 42.1490 -88.6900 269° West 388 447 18,400 1,902 Climbing FlightAware ADS-B
Tue 07:58:42 PM 42.1460 -88.7990 268° West 400 460 19,900 2,049 Climbing FlightAware ADS-B
Tue 07:59:19 PM 42.1430 -88.8940 268° West 407 468 21,200 1,929 Climbing FlightAware ADS-B
Tue 08:00:06 PM 42.1400 -89.0130 268° West 419 482 22,600 1,820 Climbing FlightAware ADS-B
Tue 08:00:48 PM 42.1380 -89.1190 269° West 424 488 23,900 1,714 Climbing FlightAware ADS-B
Tue 08:01:30 PM 42.1360 -89.2350 269° West 434 499 25,000 1,556 Climbing FlightAware ADS-B
Tue 08:02:09 PM 42.1340 -89.3400 269° West 439 505 26,000 1,571 Climbing FlightAware ADS-B
Tue 08:02:54 PM 42.1310 -89.4660 268° West 443 510 27,200 1,590 Climbing FlightAware ADS-B
Tue 08:03:32 PM 42.1280 -89.5690 268° West 446 513 28,200 1,459 Climbing FlightAware ADS-B
Tue 08:04:08 PM 42.1260 -89.6680 268° West 448 516 29,000 1,429 Climbing FlightAware ADS-B
Tue 08:04:56 PM 42.1230 -89.8040 268° West 448 516 30,200 1,465 Climbing FlightAware ADS-B
Tue 08:05:34 PM 42.1220 -89.9100 269° West 447 514 31,100 1,308 Climbing FlightAware ADS-B
Tue 08:06:14 PM 42.1210 -90.0210 269° West 449 517 31,900 1,229 Climbing FlightAware ADS-B
Tue 08:06:57 PM 42.1200 -90.1380 269° West 448 516 32,800 1,310 Climbing FlightAware ADS-B
Tue 08:07:41 PM 42.1190 -90.2640 269° West 446 513 33,800 1,227 Climbing FlightAware ADS-B
Tue 08:08:25 PM 42.1230 -90.3880 273° West 444 511 34,600 1,050 Climbing FlightAware ADS-B
Tue 08:09:01 PM 42.1310 -90.4870 276° West 444 511 35,200 1,013 Climbing FlightAware ADS-B
Tue 08:09:42 PM 42.1400 -90.5980 276° West 444 511 35,900 600 Climbing FlightAware ADS-B
Tue 08:10:21 PM 42.1480 -90.7050 276° West 444 511 36,000 79 Climbing FlightAware ADS-B
Tue 08:10:58 PM 42.1560 -90.8040 276° West 441 507 36,000  Level FlightAware ADS-B
Tue 08:11:40 PM 42.1650 -90.9210 276° West 439 505 36,000  Level FlightAware ADS-B
Tue 08:12:19 PM 42.1720 -91.0250 275° West 438 504 36,000  Level FlightAware ADS-B
Tue 08:13:00 PM 42.1790 -91.1310 275° West 438 504 36,000  Level FlightAware ADS-B
Tue 08:13:40 PM 42.1870 -91.2390 276° West 437 503 36,000  Level FlightAware ADS-B
Tue 08:14:27 PM 42.1960 -91.3720 275° West 441 507 36,000  Level FlightAware ADS-B
Tue 08:15:09 PM 42.2040 -91.4870 275° West 442 509 36,000  Level FlightAware ADS-B
Tue 08:15:49 PM 42.2120 -91.5970 276° West 444 511 36,000  Level FlightAware ADS-B
Tue 08:16:33 PM 42.2200 -91.7220 275° West 447 514 36,000  Level FlightAware ADS-B
Tue 08:17:16 PM 42.2280 -91.8400 275° West 447 514 36,000  Level FlightAware ADS-B
Tue 08:18:00 PM 42.2360 -91.9580 275° West 447 514 36,000  Level FlightAware ADS-B
Tue 08:18:40 PM 42.2430 -92.0750 275° West 447 514 36,000  Level FlightAware ADS-B
Tue 08:19:20 PM 42.2500 -92.1840 275° West 447 514 36,000  Level FlightAware ADS-B
Tue 08:20:02 PM 42.2570 -92.2990 275° West 449 517 36,000  Level FlightAware ADS-B
Tue 08:20:45 PM 42.2640 -92.4140 275° West 450 518 36,000  Level FlightAware ADS-B
Tue 08:21:28 PM 42.2720 -92.5410 275° West 452 520 36,000  Level FlightAware ADS-B
Tue 08:22:12 PM 42.2790 -92.6620 275° West 453 521 36,000  Level FlightAware ADS-B
Tue 08:22:48 PM 42.2850 -92.7620 275° West 453 521 36,000  Level FlightAware ADS-B
Tue 08:23:34 PM 42.2920 -92.8970 274° West 456 525 36,000  Level FlightAware ADS-B
Tue 08:24:18 PM 42.2990 -93.0180 275° West 457 526 36,000  Level FlightAware ADS-B
Tue 08:24:59 PM 42.3050 -93.1370 274° West 458 527 36,000  Level FlightAware ADS-B
Tue 08:25:39 PM 42.3120 -93.2520 275° West 458 527 36,000  Level FlightAware ADS-B
Tue 08:26:19 PM 42.3180 -93.3660 274° West 458 527 36,000  Level FlightAware ADS-B
Tue 08:26:57 PM 42.3234 -93.4739 274° West 458 527 36,000  Level FlightAware ADS-B
Tue 08:27:28 PM 42.3279 -93.5623 274° West 459 528 36,000  Level FlightAware ADS-B
Tue 08:27:59 PM 42.3321 -93.6518 274° West 460 529 36,000  Level FlightAware ADS-B
Tue 08:28:29 PM 42.3363 -93.7380 274° West 461 531 36,000  Level FlightAware ADS-B
Tue 08:29:00 PM 42.3405 -93.8254 274° West 461 531 36,000  Level FlightAware ADS-B
Tue 08:29:33 PM 42.3450 -93.9203 274° West 463 533 36,000  Level FlightAware ADS-B
Tue 08:30:04 PM 42.3492 -94.0097 274° West 468 539 36,000  Level FlightAware ADS-B
Tue 08:30:35 PM 42.3534 -94.0999 274° West 469 540 36,000  Level FlightAware ADS-B
Tue 08:31:09 PM 42.3578 -94.2000 273° West 470 541 36,000  Level FlightAware ADS-B
Tue 08:31:39 PM 42.3617 -94.2884 273° West 471 542 36,000  Level FlightAware ADS-B
Tue 08:32:09 PM 42.3655 -94.3766 273° West 472 543 36,000  Level FlightAware ADS-B
Tue 08:32:41 PM 42.3696 -94.4708 273° West 472 543 36,000  Level FlightAware ADS-B
Tue 08:33:12 PM 42.3734 -94.5600 273° West 472 543 36,000  Level FlightAware ADS-B
Tue 08:33:43 PM 42.3774 -94.6507 273° West 471 542 36,000  Level FlightAware ADS-B
Tue 08:34:14 PM 42.3811 -94.7418 273° West 471 542 36,000  Level FlightAware ADS-B
Tue 08:34:44 PM 42.3845 -94.8307 273° West 469 540 36,000  Level FlightAware ADS-B
Tue 08:35:14 PM 42.3878 -94.9193 273° West 468 539 36,000  Level FlightAware ADS-B
Tue 08:35:45 PM 42.3911 -95.0080 273° West 468 539 36,000  Level FlightAware ADS-B
Tue 08:36:15 PM 42.3945 -95.0959 273° West 467 537 36,000  Level FlightAware ADS-B
Tue 08:36:45 PM 42.3978 -95.1840 273° West 467 537 36,000  Level FlightAware ADS-B
Tue 08:37:16 PM 42.4009 -95.2739 273° West 467 537 36,000  Level FlightAware ADS-B
Tue 08:37:47 PM 42.4042 -95.3616 273° West 467 537 36,000  Level FlightAware ADS-B
Tue 08:38:19 PM 42.4074 -95.4566 273° West 466 536 36,000  Level FlightAware ADS-B
Tue 08:38:49 PM 42.4102 -95.5441 273° West 467 537 36,000  Level FlightAware ADS-B
Tue 08:39:19 PM 42.4130 -95.6318 273° West 470 541 36,000  Level FlightAware ADS-B
Tue 08:39:49 PM 42.4158 -95.7201 272° West 470 541 36,000  Level FlightAware ADS-B
Tue 08:40:20 PM 42.4185 -95.8088 272° West 471 542 36,000  Level FlightAware ADS-B
Tue 08:40:50 PM 42.4211 -95.8980 272° West 470 541 36,000  Level FlightAware ADS-B
Tue 08:41:23 PM 42.4239 -95.9946 272° West 471 542 36,000  Level FlightAware ADS-B
Tue 08:42:00 PM 42.4272 -96.1042 272° West 471 542 36,000  Level FlightAware ADS-B
Tue 08:42:32 PM 42.4298 -96.1959 272° West 471 542 36,000  Level FlightAware ADS-B
Tue 08:42:52 PM 42.4307 -96.2566 271° West 469 540 36,000  Level FlightAware ADS-B
Tue 08:43:01 PM 42.4291 -96.2821 265° West 472 543 36,000  Level FlightAware ADS-B
Tue 08:43:37 PM 42.4182 -96.3878 262° West 471 542 36,000  Level FlightAware ADS-B
Tue 08:44:11 PM 42.4082 -96.4858 262° West 469 540 36,000  Level FlightAware ADS-B
Tue 08:44:41 PM 42.3988 -96.5729 262° West 468 539 36,000 290 Level FlightAware ADS-B
Tue 08:45:13 PM 42.3879 -96.6641 261° West 471 542 36,300 387 Climbing FlightAware ADS-B
Tue 08:45:43 PM 42.3779 -96.7529 261° West 477 549 36,400 400 Climbing FlightAware ADS-B
Tue 08:46:13 PM 42.3681 -96.8421 262° West 479 551 36,700 824 Climbing FlightAware ADS-B
Tue 08:46:34 PM 42.3617 -96.9034 262° West 475 547 37,100 973 Climbing FlightAware ADS-B
Tue 08:46:50 PM 42.3597 -96.9515 267° West 469 540 37,300 968 Climbing FlightAware ADS-B
Tue 08:47:05 PM 42.3608 -96.9940 272° West 466 536 37,600 783 Climbing FlightAware ADS-B
Tue 08:47:36 PM 42.3661 -97.0826 275° West 465 535 37,900 387 Climbing FlightAware ADS-B
Tue 08:48:07 PM 42.3727 -97.1727 276° West 467 537 38,000 98 Climbing FlightAware ADS-B
Tue 08:48:37 PM 42.3793 -97.2599 276° West 464 534 38,000  Level FlightAware ADS-B
Tue 08:49:09 PM 42.3860 -97.3518 276° West 463 533 38,000  Level FlightAware ADS-B
Tue 08:49:39 PM 42.3919 -97.4382 275° West 462 532 38,000  Level FlightAware ADS-B
Tue 08:50:09 PM 42.3977 -97.5250 275° West 461 531 38,000  Level FlightAware ADS-B
Tue 08:50:40 PM 42.4036 -97.6114 275° West 460 529 38,000  Level FlightAware ADS-B
Tue 08:51:17 PM 42.4107 -97.7178 275° West 460 529 38,000  Level FlightAware ADS-B
Tue 08:51:47 PM 42.4163 -97.8044 275° West 456 525 38,000  Level FlightAware ADS-B
Tue 08:52:17 PM 42.4218 -97.8893 275° West 455 524 38,000  Level FlightAware ADS-B
Tue 08:53:01 PM 42.4297 -98.0117 275° West 454 522 38,000  Level FlightAware ADS-B
Tue 08:53:31 PM 42.4350 -98.0969 275° West 453 521 38,000  Level FlightAware ADS-B
Tue 08:54:02 PM 42.4405 -98.1854 275° West 452 520 38,000  Level FlightAware ADS-B
Tue 08:54:35 PM 42.4462 -98.2768 275° West 451 519 38,000  Level FlightAware ADS-B
Tue 08:55:05 PM 42.4514 -98.3617 275° West 451 519 38,000  Level FlightAware ADS-B
Tue 08:57:12 PM 42.4670 -98.7206 273° West 466 536 38,000  Level FlightAware ADS-B
Tue 08:57:43 PM 42.4583 -98.8097 262° West 471 542 38,000  Level FlightAware ADS-B
Tue 08:58:13 PM 42.4494 -98.8981 262° West 471 542 38,000  Level FlightAware ADS-B
Tue 08:58:46 PM 42.4398 -98.9919 262° West 470 541 38,000  Level FlightAware ADS-B
Tue 09:01:51 PM 42.3847 -99.5272 262° West 466 536 38,000  Level FlightAware ADS-B
Tue 09:02:22 PM 42.3755 -99.6140 262° West 466 536 38,000  Level FlightAware ADS-B
Tue 09:02:52 PM 42.3663 -99.7002 262° West 466 536 38,000  Level FlightAware ADS-B
Tue 09:03:23 PM 42.3566 -99.7899 262° West 466 536 38,000  Level FlightAware ADS-B
Tue 09:03:53 PM 42.3471 -99.8765 262° West 465 535 38,000  Level FlightAware ADS-B
Tue 09:04:23 PM 42.3375 -99.9636 262° West 465 535 38,000  Level FlightAware ADS-B
Tue 09:05:18 PM 42.3242 -100.0867 262° West 468 539 38,000  Level Minneapolis Center
Tue 09:06:20 PM 42.3003 -100.2942 261° West 467 537 38,000  Level Minneapolis Center
Tue 09:07:18 PM 42.2825 -100.4542 262° West 466 536 38,000  Level Denver Center
Tue 09:08:20 PM 42.2633 -100.6189 261° West 465 535 38,000  Level Denver Center
Tue 09:09:22 PM 42.2408 -100.8125 261° West 467 537 38,000  Level Denver Center
Tue 09:15:27 PM 42.1103 -101.8790 261° West 473 544 38,000  Level FlightAware ADS-B
Tue 09:15:57 PM 42.0989 -101.9680 260° West 471 542 38,000  Level FlightAware ADS-B
Tue 09:16:30 PM 42.0869 -102.0600 260° West 468 539 38,000  Level FlightAware ADS-B
Tue 09:17:00 PM 42.0760 -102.1460 260° West 464 534 38,000  Level FlightAware ADS-B
Tue 09:17:32 PM 42.0643 -102.2350 260° West 459 528 38,000  Level FlightAware ADS-B
Tue 09:18:02 PM 42.0532 -102.3200 260° West 458 527 38,000  Level FlightAware ADS-B
Tue 09:18:32 PM 42.0423 -102.4040 260° West 458 527 38,000  Level FlightAware ADS-B
Tue 09:19:02 PM 42.0310 -102.4900 260° West 457 526 38,000  Level FlightAware ADS-B
Tue 09:19:32 PM 42.0197 -102.5730 260° West 456 525 38,000  Level FlightAware ADS-B
Tue 09:20:03 PM 42.0084 -102.6560 260° West 453 521 38,000  Level FlightAware ADS-B
Tue 09:20:33 PM 41.9970 -102.7410 260° West 450 518 38,000  Level FlightAware ADS-B
Tue 09:21:06 PM 41.9850 -102.8300 260° West 449 517 38,000  Level FlightAware ADS-B
Tue 09:21:36 PM 41.9738 -102.9120 260° West 448 516 38,000  Level FlightAware ADS-B
Tue 09:22:06 PM 41.9625 -102.9940 260° West 447 514 38,000  Level FlightAware ADS-B
Tue 09:22:41 PM 41.9492 -103.0900 259° West 447 514 38,000  Level FlightAware ADS-B
Tue 09:23:13 PM 41.9372 -103.1760 259° West 447 514 38,000  Level FlightAware ADS-B
Tue 09:23:43 PM 41.9257 -103.2590 259° West 453 521 38,000  Level FlightAware ADS-B
Tue 09:24:13 PM 41.9140 -103.3420 259° West 457 526 38,000  Level FlightAware ADS-B
Tue 09:24:45 PM 41.9015 -103.4300 259° West 460 529 38,000  Level FlightAware ADS-B
Tue 09:25:03 PM 41.8952 -103.4800 260° West 455 524 38,000  Level FlightAware ADS-B
Tue 09:25:16 PM 41.8930 -103.5170 265° West 449 517 38,000  Level FlightAware ADS-B
Tue 09:25:46 PM 41.8905 -103.6000 268° West 447 514 38,000  Level FlightAware ADS-B
Tue 09:26:16 PM 41.8877 -103.6840 267° West 447 514 38,000  Level FlightAware ADS-B
Tue 09:26:47 PM 41.8848 -103.7690 267° West 447 514 38,000  Level FlightAware ADS-B
Tue 09:27:19 PM 41.8819 -103.8570 267° West 446 513 38,000  Level FlightAware ADS-B
Tue 09:27:49 PM 41.8790 -103.9410 267° West 446 513 38,000  Level FlightAware ADS-B
Tue 09:28:19 PM 41.8763 -104.0240 268° West 447 514 38,000  Level FlightAware ADS-B
Tue 09:28:50 PM 41.8733 -104.1090 267° West 447 514 38,000  Level FlightAware ADS-B
Tue 09:29:20 PM 41.8702 -104.1930 267° West 449 517 38,000  Level FlightAware ADS-B
Tue 09:29:50 PM 41.8670 -104.2760 267° West 450 518 38,000  Level FlightAware ADS-B
Tue 09:30:21 PM 41.8638 -104.3610 267° West 451 519 38,000  Level FlightAware ADS-B
Tue 09:30:52 PM 41.8605 -104.4460 267° West 452 520 38,000  Level FlightAware ADS-B
Tue 09:31:22 PM 41.8571 -104.5310 267° West 453 521 38,000  Level FlightAware ADS-B
Tue 09:31:52 PM 41.8537 -104.6160 267° West 454 522 38,000  Level FlightAware ADS-B
Tue 09:32:23 PM 41.8502 -104.7020 267° West 455 524 38,000  Level FlightAware ADS-B
Tue 09:32:53 PM 41.8466 -104.7880 267° West 455 524 38,000  Level FlightAware ADS-B
Tue 09:33:24 PM 41.8429 -104.8740 267° West 452 520 38,000  Level FlightAware ADS-B
Tue 09:33:55 PM 41.8392 -104.9590 267° West 452 520 38,000  Level FlightAware ADS-B
Tue 09:34:25 PM 41.8355 -105.0430 267° West 452 520 38,000  Level FlightAware ADS-B
Tue 09:34:56 PM 41.8317 -105.1290 267° West 452 520 38,000  Level FlightAware ADS-B
Tue 09:35:27 PM 41.8278 -105.2150 267° West 453 521 38,000  Level FlightAware ADS-B
Tue 09:36:09 PM 41.8220 -105.3340 266° West 455 524 38,000  Level FlightAware ADS-B
Tue 09:36:51 PM 41.8170 -105.4500 267° West 457 526 38,000  Level FlightAware ADS-B
Tue 09:37:29 PM 41.8110 -105.5580 266° West 456 525 38,000  Level FlightAware ADS-B
Tue 09:38:09 PM 41.8060 -105.6700 267° West 457 526 38,000  Level FlightAware ADS-B
Tue 09:38:49 PM 41.8000 -105.7810 266° West 457 526 38,000  Level FlightAware ADS-B
Tue 09:39:30 PM 41.7940 -105.8990 266° West 457 526 38,000  Level FlightAware ADS-B
Tue 09:40:13 PM 41.7880 -106.0210 266° West 459 528 38,000  Level FlightAware ADS-B
Tue 09:40:55 PM 41.7820 -106.1390 266° West 459 528 38,000  Level FlightAware ADS-B
Tue 09:41:38 PM 41.7750 -106.2590 266° West 459 528 38,000  Level FlightAware ADS-B
Tue 09:42:15 PM 41.7690 -106.3670 266° West 459 528 38,000  Level FlightAware ADS-B
Tue 09:42:53 PM 41.7630 -106.4720 266° West 457 526 38,000  Level FlightAware ADS-B
Tue 09:43:31 PM 41.7570 -106.5630 265° West 457 526 38,000  Level FlightAware ADS-B
Tue 09:44:15 PM 41.7500 -106.7010 266° West 456 525 38,000  Level FlightAware ADS-B
Tue 09:44:52 PM 41.7440 -106.7890 265° West 456 525 38,000  Level FlightAware ADS-B
Tue 09:45:29 PM 41.7380 -106.8780 265° West 456 525 38,000  Level FlightAware ADS-B
Tue 09:46:17 PM 41.7310 -106.9930 265° West 456 525 38,000  Level FlightAware ADS-B
Tue 09:47:15 PM 41.7220 -107.1310 265° West 456 525 38,000  Level FlightAware ADS-B
Tue 09:47:51 PM 41.7160 -107.2180 265° West 456 525 38,000  Level FlightAware ADS-B
Tue 09:48:39 PM 41.7090 -107.3330 265° West 456 525 38,000  Level FlightAware ADS-B
Tue 09:49:13 PM 41.7030 -107.4140 264° West 456 525 38,000  Level FlightAware ADS-B
Tue 09:49:51 PM 41.6970 -107.5050 265° West 456 525 38,000  Level FlightAware ADS-B
Tue 09:50:40 PM 41.6900 -107.6220 265° West 456 525 38,000  Level FlightAware ADS-B
Tue 09:51:16 PM 41.6840 -107.7080 265° West 456 525 38,000  Level FlightAware ADS-B
Tue 09:51:52 PM 41.6780 -107.7940 265° West 456 525 38,000  Level FlightAware ADS-B
Tue 09:52:39 PM 41.6710 -107.9070 265° West 456 525 38,000  Level FlightAware ADS-B
Tue 09:53:15 PM 41.6650 -107.9930 265° West 456 525 38,000  Level FlightAware ADS-B
Tue 09:53:51 PM 41.6600 -108.0790 266° West 456 525 38,000  Level FlightAware ADS-B
Tue 09:54:51 PM 41.6319 -108.4769 266° West 466 536 38,000  Level Denver Center
Tue 09:55:59 PM 41.6181 -108.6686 265° West 464 534 38,000  Level Salt Lake Center
Tue 09:57:00 PM 41.6056 -108.8339 264° West 468 539 38,000  Level Salt Lake Center
Tue 09:58:02 PM 41.5914 -109.0242 264° West 468 539 38,000  Level Salt Lake Center
Tue 09:59:03 PM 41.5881 -109.1878 268° West 470 541 38,000  Level Salt Lake Center
Tue 10:00:04 PM 41.5808 -109.3753 267° West 462 532 38,000  Level Salt Lake Center
Tue 10:05:37 PM 41.5490 -110.3070 267° West 446 513 38,000  Level FlightAware ADS-B
Tue 10:06:17 PM 41.5450 -110.4170 267° West 445 512 38,000  Level FlightAware ADS-B
Tue 10:06:57 PM 41.5410 -110.5270 267° West 445 512 38,000  Level FlightAware ADS-B
Tue 10:07:43 PM 41.5360 -110.6540 267° West 445 512 38,000  Level FlightAware ADS-B
Tue 10:08:23 PM 41.5310 -110.7620 266° West 443 510 38,000  Level FlightAware ADS-B
Tue 10:08:50 PM 41.5283 -110.8370 267° West 443 510 38,000  Level FlightAware ADS-B
Tue 10:09:20 PM 41.5248 -110.9190 267° West 443 510 38,000  Level FlightAware ADS-B
Tue 10:09:50 PM 41.5212 -111.0010 267° West 445 512 38,000  Level FlightAware ADS-B
Tue 10:10:29 PM 41.5165 -111.1090 267° West 447 514 38,000  Level FlightAware ADS-B
Tue 10:11:00 PM 41.5129 -111.1920 267° West 447 514 38,000  Level FlightAware ADS-B
Tue 10:11:30 PM 41.5090 -111.2750 266° West 446 513 38,000  Level FlightAware ADS-B
Tue 10:12:01 PM 41.5051 -111.3580 266° West 445 512 38,000  Level FlightAware ADS-B
Tue 10:12:31 PM 41.5013 -111.4410 267° West 443 510 38,000  Level FlightAware ADS-B
Tue 10:13:04 PM 41.4971 -111.5310 266° West 441 507 38,000  Level FlightAware ADS-B
Tue 10:13:35 PM 41.4930 -111.6130 266° West 441 507 38,000  Level FlightAware ADS-B
Tue 10:14:05 PM 41.4890 -111.6970 266° West 439 505 38,000  Level FlightAware ADS-B
Tue 10:14:39 PM 41.4845 -111.7870 266° West 438 504 38,000  Level FlightAware ADS-B
Tue 10:15:11 PM 41.4801 -111.8730 266° West 438 504 38,000  Level FlightAware ADS-B
Tue 10:15:48 PM 41.4751 -111.9730 266° West 436 502 38,000  Level FlightAware ADS-B
Tue 10:16:19 PM 41.4709 -112.0570 266° West 438 504 38,000  Level FlightAware ADS-B
Tue 10:16:51 PM 41.4665 -112.1410 266° West 437 503 38,000  Level FlightAware ADS-B
Tue 10:17:21 PM 41.4619 -112.2220 266° West 439 505 38,000  Level FlightAware ADS-B
Tue 10:17:52 PM 41.4574 -112.3040 266° West 439 505 38,000  Level FlightAware ADS-B
Tue 10:18:22 PM 41.4528 -112.3860 266° West 441 507 38,000  Level FlightAware ADS-B
Tue 10:18:54 PM 41.4478 -112.4730 266° West 444 511 38,000  Level FlightAware ADS-B
Tue 10:19:24 PM 41.4434 -112.5560 266° West 445 512 38,000  Level FlightAware ADS-B
Tue 10:19:55 PM 41.4387 -112.6390 266° West 447 514 38,000  Level FlightAware ADS-B
Tue 10:20:32 PM 41.4326 -112.7410 265° West 447 514 38,000  Level FlightAware ADS-B
Tue 10:21:04 PM 41.4274 -112.8270 265° West 448 516 38,000  Level FlightAware ADS-B
Tue 10:21:37 PM 41.4219 -112.9200 266° West 449 517 38,000  Level FlightAware ADS-B
Tue 10:22:08 PM 41.4169 -113.0040 265° West 445 512 38,000  Level FlightAware ADS-B
Tue 10:22:42 PM 41.4112 -113.0960 265° West 442 509 38,000  Level FlightAware ADS-B
Tue 10:22:52 PM 41.4091 -113.1240 264° West 441 507 38,000  Level FlightAware ADS-B
Tue 10:23:11 PM 41.4019 -113.1720 259° West 443 510 38,000  Level FlightAware ADS-B
Tue 10:23:44 PM 41.3842 -113.2600 255° West 445 512 38,000  Level FlightAware ADS-B
Tue 10:24:14 PM 41.3681 -113.3400 255° West 445 512 38,000  Level FlightAware ADS-B
Tue 10:24:44 PM 41.3518 -113.4200 255° West 446 513 38,000  Level FlightAware ADS-B
Tue 10:25:17 PM 41.3341 -113.5060 255° West 446 513 38,000  Level FlightAware ADS-B
Tue 10:25:47 PM 41.3175 -113.5850 254° West 447 514 38,000  Level FlightAware ADS-B
Tue 10:26:17 PM 41.3010 -113.6650 255° West 449 517 38,000  Level FlightAware ADS-B
Tue 10:26:47 PM 41.2842 -113.7450 254° West 449 517 38,000  Level FlightAware ADS-B
Tue 10:27:18 PM 41.2670 -113.8270 254° West 450 518 38,000  Level FlightAware ADS-B
Tue 10:27:48 PM 41.2530 -113.8920 254° West 450 518 38,000  Level FlightAware ADS-B
Tue 10:27:54 PM 41.2471 -113.9230 256° West 451 519 38,000  Level FlightAware ADS-B
Tue 10:28:25 PM 41.2292 -114.0070 254° West 456 525 38,000  Level FlightAware ADS-B
Tue 10:28:55 PM 41.2120 -114.0890 254° West 458 527 38,000  Level FlightAware ADS-B
Tue 10:29:26 PM 41.1944 -114.1700 254° West 459 528 38,000  Level FlightAware ADS-B
Tue 10:29:56 PM 41.1768 -114.2520 254° West 455 524 38,000  Level FlightAware ADS-B
Tue 10:30:26 PM 41.1594 -114.3330 254° West 454 522 38,000  Level FlightAware ADS-B
Tue 10:31:02 PM 41.1388 -114.4290 254° West 454 522 38,000  Level FlightAware ADS-B
Tue 10:31:34 PM 41.1209 -114.5120 254° West 455 524 38,000  Level FlightAware ADS-B
Tue 10:32:04 PM 41.1033 -114.5930 254° West 455 524 38,000  Level FlightAware ADS-B
Tue 10:32:38 PM 41.0834 -114.6840 254° West 453 521 38,000  Level FlightAware ADS-B
Tue 10:33:08 PM 41.0662 -114.7640 254° West 449 517 38,000  Level FlightAware ADS-B
Tue 10:34:19 PM 41.0250 -114.9480 254° West 446 513 38,000  Level FlightAware ADS-B
Tue 10:34:29 PM 41.0192 -114.9760 255° West 447 514 38,000  Level FlightAware ADS-B
Tue 10:35:08 PM 40.9969 -115.0770 254° West 447 514 38,000  Level FlightAware ADS-B
Tue 10:35:38 PM 40.9794 -115.1550 253° West 447 514 38,000  Level FlightAware ADS-B
Tue 10:36:08 PM 40.9618 -115.2350 254° West 445 512 38,000  Level FlightAware ADS-B
Tue 10:36:38 PM 40.9443 -115.3130 253° West 445 512 38,000  Level FlightAware ADS-B
Tue 10:37:11 PM 40.9251 -115.3970 253° West 444 511 38,000  Level FlightAware ADS-B
Tue 10:37:44 PM 40.9058 -115.4830 253° West 443 510 38,000  Level FlightAware ADS-B
Tue 10:38:56 PM 40.8658 -115.6497 253° West 442 509 38,000  Level Salt Lake Center
Tue 10:39:58 PM 40.8331 -115.7964 254° West 436 502 38,000  Level Salt Lake Center
Tue 10:40:59 PM 40.7969 -115.9667 254° West 432 497 38,000  Level Salt Lake Center
Tue 10:42:01 PM 40.7622 -116.1122 253° West 433 498 38,000  Level Salt Lake Center
Tue 10:43:02 PM 40.7206 -116.2831 252° West 437 503 38,000  Level Salt Lake Center
Tue 10:44:04 PM 40.6864 -116.4278 253° West 434 499 38,000  Level Salt Lake Center
Tue 10:45:05 PM 40.6478 -116.5953 253° West 431 496 38,000  Level Salt Lake Center
Tue 10:46:07 PM 40.6142 -116.7372 253° West 427 491 38,000  Level Salt Lake Center
Tue 10:47:08 PM 40.5803 -116.8794 253° West 430 495 38,000  Level Salt Lake Center
Tue 10:48:10 PM 40.5331 -117.0419 249° West 435 501 38,000 -413 Level Salt Lake Center
Tue 10:53:26 PM 40.2110 -117.7750 249° West 458 527 35,400 -576 Descending FlightAware ADS-B
Tue 10:54:25 PM 40.1430 -117.9140 237° Southwest 459 528 34,400 -1,049 Descending FlightAware ADS-B
Tue 10:55:09 PM 40.0930 -118.0140 237° Southwest 448 516 33,600 -1,909 Descending FlightAware ADS-B
Tue 10:55:53 PM 40.0430 -118.1150 237° Southwest 446 513 31,600 -2,571 Descending FlightAware ADS-B
Tue 10:56:33 PM 39.9970 -118.2070 237° Southwest 455 524 30,000 -2,302 Descending FlightAware ADS-B
Tue 10:57:19 PM 39.9450 -118.3090 236° Southwest 450 518 28,300 -2,233 Descending FlightAware ADS-B
Tue 10:57:59 PM 39.9000 -118.4000 237° Southwest 439 505 26,800 -2,250 Descending FlightAware ADS-B
Tue 10:58:39 PM 39.8550 -118.4880 236° Southwest 433 498 25,300 -2,122 Descending FlightAware ADS-B
Tue 10:59:21 PM 39.8100 -118.5770 237° Southwest 418 481 23,900 -2,045 Descending FlightAware ADS-B
Tue 11:00:07 PM 39.7610 -118.6740 237° Southwest 412 474 22,300 -2,077 Descending FlightAware ADS-B
Tue 11:00:39 PM 39.7290 -118.7380 237° Southwest 405 466 21,200 -1,974 Descending FlightAware ADS-B
Tue 11:01:23 PM 39.6840 -118.8280 237° Southwest 399 459 19,800 -1,857 Descending FlightAware ADS-B
Tue 11:02:03 PM 39.6440 -118.9060 236° Southwest 389 448 18,600 -1,756 Descending FlightAware ADS-B
Tue 11:02:45 PM 39.6020 -118.9870 236° Southwest 373 429 17,400 -1,786 Descending FlightAware ADS-B
Tue 11:03:27 PM 39.5630 -119.0640 237° Southwest 366 421 16,100 -1,116 Descending FlightAware ADS-B
Tue 11:04:11 PM 39.5220 -119.1440 236° Southwest 366 421 15,800 -357 Descending FlightAware ADS-B
Tue 11:04:51 PM 39.4830 -119.2180 236° Southwest 375 432 15,600 -857 Descending FlightAware ADS-B
Tue 11:05:42 PM 39.4350 -119.3110 236° Southwest 382 440 14,500 -1,109 Descending FlightAware ADS-B
Tue 11:06:23 PM 39.3950 -119.3890 236° Southwest 371 427 13,900 -889 Descending FlightAware ADS-B
Tue 11:07:03 PM 39.3570 -119.4620 236° Southwest 361 415 13,300 -1,071 Descending FlightAware ADS-B
Tue 11:07:47 PM 39.3190 -119.5370 237° Southwest 334 384 12,400 -1,214 Descending FlightAware ADS-B
Tue 11:08:27 PM 39.2870 -119.6020 238° Southwest 302 348 11,600 -1,463 Descending FlightAware ADS-B
Tue 11:09:09 PM 39.2550 -119.6640 236° Southwest 296 341 10,400 -1,655 Descending FlightAware ADS-B
Tue 11:09:25 PM 39.2480 -119.6900 251° West 292 336 10,000 -1,364 Descending FlightAware ADS-B
Tue 11:09:53 PM 39.2610 -119.7340 291° West 289 333 9,400 -1,024 Descending FlightAware ADS-B
Tue 11:10:06 PM 39.2750 -119.7470 324° Northwest 283 326 9,300 -682 Descending FlightAware ADS-B
Tue 11:10:37 PM 39.3090 -119.7690 333° Northwest 260 299 8,900 -1,164 Descending FlightAware ADS-B
Tue 11:11:13 PM 39.3520 -119.7700 359° North 240 276 8,000 -1,273 Descending FlightAware ADS-B
Tue 11:11:43 PM 39.3820 -119.7690 North 205 236 7,500 -1,227 Descending FlightAware ADS-B
Tue 11:11:57 PM 39.3950 -119.7690 360° North 199 229 7,100 -1,500 Descending FlightAware ADS-B
Tue 11:12:43 PM 39.4340 -119.7690 360° North 181 208 6,000 -1,059 Descending FlightAware ADS-B
Tue 11:13:05 PM 39.4520 -119.7690 360° North 174 200 5,900 1,222 Descending FlightAware ADS-B
Tue 11:13:37 PM 39.4810 -119.7690 360° North 196 226 7,100 2,400 Climbing FlightAware ADS-B
Tue 11:14:05 PM 39.5070 -119.7680 North 207 238 8,300 1,846 Climbing FlightAware ADS-B
Tue 11:14:29 PM 39.5330 -119.7650 North 256 295 8,700 1,714 Climbing FlightAware ADS-B
Tue 11:14:54 PM 39.5610 -119.7510 21° North 283 326 9,700 1,269 Climbing FlightAware ADS-B
Tue 11:15:21 PM 39.5760 -119.7110 64° Northeast 270 311 9,800  Climbing FlightAware ADS-B
Tue 11:16:03 PM 39.5430 -119.6650 133° Southeast 270 311 9,700  Descending FlightAware ADS-B
Tue 11:16:29 PM 39.5120 -119.6610 174° South 263 303 9,800 120 Climbing FlightAware ADS-B
Tue 11:16:53 PM 39.4800 -119.6570 174° South 275 316 9,800  Level FlightAware ADS-B
Tue 11:17:23 PM 39.4430 -119.6540 176° South 273 314 9,800  Level FlightAware ADS-B
Tue 11:17:51 PM 39.4090 -119.6490 174° South 254 292 9,800  Level FlightAware ADS-B
Tue 11:18:17 PM 39.3790 -119.6450 174° South 237 273 9,800  Level FlightAware ADS-B
Tue 11:18:45 PM 39.3480 -119.6410 174° South 248 285 9,800  Level FlightAware ADS-B
Tue 11:18:57 PM 39.3350 -119.6400 177° South 248 285 9,800  Level FlightAware ADS-B
Tue 11:19:43 PM 39.2840 -119.6360 177° South 235 270 9,800  Level FlightAware ADS-B
Tue 11:20:07 PM 39.2580 -119.6330 175° South 233 268 9,800  Level FlightAware ADS-B
Tue 11:20:35 PM 39.2290 -119.6280 172° South 239 275 9,800  Level FlightAware ADS-B
Tue 11:21:19 PM 39.1890 -119.6530 206° Southwest 229 264 9,800  Level FlightAware ADS-B
Tue 11:21:27 PM 39.1880 -119.6640 263° West 221 254 9,800 -333 Level FlightAware ADS-B
Tue 11:21:55 PM 39.1940 -119.6980 283° West 206 237 9,600 -778 Descending FlightAware ADS-B
Tue 11:22:21 PM 39.2010 -119.7290 286° West 201 231 9,100 -1,000 Descending FlightAware ADS-B
Tue 11:22:37 PM 39.2080 -119.7450 299° West 196 226 8,900 -643 Descending FlightAware ADS-B
Tue 11:22:49 PM 39.2170 -119.7520 329° Northwest 196 226 8,800 -150 Descending FlightAware ADS-B
Tue 11:23:17 PM 39.2420 -119.7660 337° Northwest 209 241 8,800  Level FlightAware ADS-B
Tue 11:23:40 PM 39.2630 -119.7700 352° North 207 238 8,800 -476 Level FlightAware ADS-B
Tue 11:24:20 PM 39.3020 -119.7700 360° North 207 238 8,300 -964 Descending FlightAware ADS-B
Tue 11:24:36 PM 39.3170 -119.7700 360° North 201 231 7,900 -1,322 Descending FlightAware ADS-B
Tue 11:25:19 PM 39.3540 -119.7700 360° North 176 203 7,000 -1,182 Descending FlightAware ADS-B
Tue 11:25:42 PM 39.3710 -119.7700 360° North 153 176 6,600 -906 Descending FlightAware ADS-B
Tue 11:26:12 PM 39.3920 -119.7700 360° North 149 171 6,200 -889 Descending FlightAware ADS-B
Tue 11:26:36 PM 39.4090 -119.7700 360° North 153 176 5,800 -947 Descending FlightAware ADS-B
Tue 11:26:50 PM 39.4200 -119.7700 360° North 157 181 5,600 -933 Descending FlightAware ADS-B
Tue 11:27:21 PM 39.4420 -119.7690 North 154 177 5,100 -900 Descending FlightAware ADS-B
Tue 11:27:50 PM 39.4630 -119.7690 360° North 160 184 4,700 -857 Descending FlightAware ADS-B
Tue 11:28:17 PM 39.4830 -119.7690 360° North 161 185 4,300 -889 Descending FlightAware ADS-B
Tue 11:28:52 PM 39.5040 -119.7690 360° North 69 79 -7,371 Descending FlightAware ADS-B
Tue 11:29:24 PM 39.5100 -119.7690 360° North 26 30  Level FlightAware ADS-B
Tue 11:29:34 PM 39.5110 -119.7700 322° Northwest 15 17  Level FlightAware ADS-B

Login

Don't have an account? Register now (free) for customized features, flight alerts, and more!